Time;durP1;ratioP1;P1;durP2;ratioP2;P2;SDS_P1;SDS_P2;PMS_P1;PMS_P2;Temp;Humidity;BMP_temperature;BMP_pressure;BME280_temperature;BME280_humidity;BME280_pressure;Samples;Min_cycle;Max_cycle;Signal;HPM_P1;HPM_P2
2021/11/09 00:00:57;;;;;;;;;;;19.90;99.90;;;;;;6185611;23;19915;-66
2021/11/09 00:03:25;;;;;;;;;;;19.90;99.90;;;;;;6185477;23;20316;-68
2021/11/09 00:06:01;;;;;;;;;;;20.00;99.90;;;;;;6185521;23;19986;-68
2021/11/09 00:08:34;;;;;;;;;;;20.00;99.90;;;;;;6184858;23;19904;-69
2021/11/09 00:11:01;;;;;;;;;;;20.00;99.90;;;;;;6184571;23;20347;-70
2021/11/09 00:13:27;;;;;;;;;;;20.10;99.90;;;;;;6184911;23;19905;-73
2021/11/09 00:15:54;;;;;;;;;;;20.10;99.90;;;;;;6185185;23;20416;-70
2021/11/09 00:18:21;;;;;;;;;;;20.10;99.90;;;;;;6185100;23;20356;-73
2021/11/09 00:20:47;;;;;;;;;;;20.10;99.90;;;;;;6184335;23;20271;-67
2021/11/09 00:23:15;;;;;;;;;;;20.20;99.90;;;;;;6185034;23;19908;-70
2021/11/09 00:25:42;;;;;;;;;;;20.30;99.90;;;;;;6184048;23;20316;-67
2021/11/09 00:28:10;;;;;;;;;;;20.40;99.90;;;;;;6184579;23;19905;-67
2021/11/09 00:30:36;;;;;;;;;;;20.60;99.90;;;;;;6184066;23;20299;-67
2021/11/09 00:33:03;;;;;;;;;;;20.70;99.90;;;;;;6184822;23;19987;-67
2021/11/09 00:35:31;;;;;;;;;;;20.70;99.90;;;;;;6184711;23;20286;-70
2021/11/09 00:37:59;;;;;;;;;;;20.60;99.90;;;;;;6184941;23;19970;-70
2021/11/09 00:40:27;;;;;;;;;;;20.70;99.90;;;;;;6184707;23;19904;-68
2021/11/09 00:42:54;;;;;;;;;;;20.80;99.90;;;;;;6184913;23;19912;-67
2021/11/09 00:45:20;;;;;;;;;;;20.80;99.90;;;;;;6184567;23;19904;-75
2021/11/09 00:47:47;;;;;;;;;;;20.80;99.90;;;;;;6184627;23;19936;-73
2021/11/09 00:50:15;;;;;;;;;;;20.70;99.90;;;;;;6184907;23;20209;-67
2021/11/09 00:52:43;;;;;;;;;;;20.70;99.90;;;;;;6184376;23;19904;-71
2021/11/09 00:55:12;;;;;;;;;;;20.90;99.90;;;;;;6158340;23;20281;-71
2021/11/09 00:57:40;;;;;;;;;;;21.40;99.90;;;;;;6184660;23;20387;-74
2021/11/09 01:00:07;;;;;;;;;;;21.70;99.90;;;;;;6183719;23;20275;-70
2021/11/09 01:02:34;;;;;;;;;;;21.90;99.90;;;;;;6184036;23;19973;-72
2021/11/09 01:05:01;;;;;;;;;;;22.30;99.90;;;;;;6184512;23;19904;-68
2021/11/09 01:07:28;;;;;;;;;;;22.30;99.90;;;;;;6184391;23;19905;-70
2021/11/09 01:09:55;;;;;;;;;;;22.60;99.90;;;;;;6184164;23;19914;-69
2021/11/09 01:12:21;;;;;;;;;;;22.70;99.90;;;;;;6184533;23;19916;-69
2021/11/09 01:14:48;;;;;;;;;;;22.60;99.90;;;;;;6183896;23;20341;-67
2021/11/09 01:17:16;;;;;;;;;;;22.80;99.90;;;;;;6184703;23;20283;-71
2021/11/09 01:19:42;;;;;;;;;;;22.90;99.90;;;;;;6184421;23;19912;-70
2021/11/09 01:22:10;;;;;;;;;;;22.70;99.90;;;;;;6184354;23;20363;-73
2021/11/09 01:24:37;;;;;;;;;;;22.20;99.90;;;;;;6184302;23;19908;-75
2021/11/09 01:27:04;;;;;;;;;;;22.00;99.90;;;;;;6184707;23;19919;-72
2021/11/09 01:29:31;;;;;;;;;;;21.80;99.90;;;;;;6182892;23;19904;-70
2021/11/09 01:31:58;;;;;;;;;;;21.80;99.90;;;;;;6186100;23;20232;-76
2021/11/09 01:34:25;;;;;;;;;;;21.50;99.90;;;;;;6185946;23;19963;-74
2021/11/09 01:36:53;;;;;;;;;;;21.30;99.90;;;;;;6186301;23;19912;-75
2021/11/09 01:39:20;;;;;;;;;;;21.20;99.90;;;;;;6185518;23;19912;-78
2021/11/09 01:41:46;;;;;;;;;;;21.10;99.90;;;;;;6185816;23;20282;-71
2021/11/09 01:44:14;;;;;;;;;;;21.10;99.90;;;;;;6186308;23;19904;-74
2021/11/09 01:46:41;;;;;;;;;;;21.10;99.90;;;;;;6185871;23;19904;-76
2021/11/09 01:49:07;;;;;;;;;;;21.10;99.90;;;;;;6186613;23;19913;-78
2021/11/09 01:51:34;;;;;;;;;;;21.20;99.90;;;;;;6186372;23;19912;-77
2021/11/09 01:54:01;;;;;;;;;;;21.30;99.90;;;;;;6185651;23;19908;-67
2021/11/09 01:56:29;;;;;;;;;;;21.60;99.90;;;;;;6185475;23;19991;-76
2021/11/09 01:58:56;;;;;;;;;;;21.70;99.90;;;;;;6186371;23;19920;-78
2021/11/09 02:01:23;;;;;;;;;;;21.80;99.90;;;;;;6159409;23;19911;-70
2021/11/09 02:03:51;;;;;;;;;;;21.80;99.90;;;;;;6186271;23;20320;-74
2021/11/09 02:06:19;;;;;;;;;;;21.90;99.90;;;;;;6185992;23;19936;-76
2021/11/09 02:08:45;;;;;;;;;;;21.90;99.90;;;;;;6185567;23;19939;-71
2021/11/09 02:11:13;;;;;;;;;;;21.70;99.90;;;;;;6186069;23;19905;-77
2021/11/09 02:13:42;;;;;;;;;;;21.40;99.90;;;;;;6185775;23;19909;-70
2021/11/09 02:16:10;;;;;;;;;;;21.40;99.90;;;;;;6186078;23;19904;-77
2021/11/09 02:18:36;;;;;;;;;;;21.50;99.90;;;;;;6185344;23;19919;-76
2021/11/09 02:21:06;;;;;;;;;;;21.60;99.90;;;;;;6185774;23;19993;-67
2021/11/09 02:23:33;;;;;;;;;;;21.60;99.90;;;;;;6185127;23;19932;-72
2021/11/09 02:26:00;;;;;;;;;;;21.70;99.90;;;;;;6185440;23;19959;-67
2021/11/09 02:28:27;;;;;;;;;;;21.60;99.90;;;;;;6185862;23;19910;-75
2021/11/09 02:30:54;;;;;;;;;;;21.80;99.90;;;;;;6185457;23;19904;-67
2021/11/09 02:33:21;;;;;;;;;;;21.90;99.90;;;;;;6185834;23;19909;-68
2021/11/09 02:35:48;;;;;;;;;;;21.80;99.90;;;;;;6185954;23;19904;-73
2021/11/09 02:38:15;;;;;;;;;;;21.80;99.90;;;;;;6185196;23;20003;-70
2021/11/09 02:40:41;;;;;;;;;;;21.70;99.90;;;;;;6185550;23;20510;-74
2021/11/09 02:43:09;;;;;;;;;;;21.60;99.90;;;;;;6185034;23;19911;-75
2021/11/09 02:48:21;;;;;;;;;;;21.80;99.90;;;;;;6185874;23;19905;-75
2021/11/09 02:50:53;;;;;;;;;;;21.90;99.90;;;;;;6185321;23;20204;-68
2021/11/09 02:55:54;;;;;;;;;;;22.00;99.90;;;;;;6186069;23;19904;-75
2021/11/09 02:58:29;;;;;;;;;;;22.00;99.90;;;;;;6185853;23;19986;-79
2021/11/09 03:04:04;;;;;;;;;;;22.00;99.90;;;;;;6185889;23;19904;-77
2021/11/09 03:09:32;;;;;;;;;;;22.00;99.90;;;;;;6161559;23;19905;-77
2021/11/09 03:12:01;;;;;;;;;;;21.90;99.90;;;;;;6159252;23;19905;-78
2021/11/09 03:14:28;;;;;;;;;;;22.00;99.90;;;;;;6185694;23;20339;-78
2021/11/09 03:16:58;;;;;;;;;;;22.00;99.90;;;;;;6185924;23;19967;-74
2021/11/09 03:44:36;;;;;;;;;;;22.10;99.90;;;;;;6185782;23;19911;-78
2021/11/09 03:47:06;;;;;;;;;;;22.10;99.90;;;;;;6185653;23;19904;-78
2021/11/09 03:49:34;;;;;;;;;;;22.10;99.90;;;;;;6185549;23;19909;-77
2021/11/09 03:52:06;;;;;;;;;;;22.00;99.90;;;;;;6184381;23;19904;-79
2021/11/09 03:54:33;;;;;;;;;;;22.00;99.90;;;;;;6184895;23;20014;-77
2021/11/09 03:59:40;;;;;;;;;;;21.90;99.90;;;;;;6185463;23;19912;-77
2021/11/09 04:04:49;;;;;;;;;;;22.30;99.90;;;;;;6184550;23;19911;-79
2021/11/09 04:09:54;;;;;;;;;;;21.90;99.90;;;;;;6185464;23;19911;-74
2021/11/09 04:12:36;;;;;;;;;;;21.80;99.90;;;;;;6184391;23;20209;-79
2021/11/09 04:18:04;;;;;;;;;;;21.80;99.90;;;;;;6184952;23;19919;-79
2021/11/09 04:29:02;;;;;;;;;;;21.90;99.90;;;;;;6194572;23;19932;-78
2021/11/09 04:45:42;;;;;;;;;;;21.90;99.90;;;;;;6184643;23;19912;-79
2021/11/09 05:03:01;;;;;;;;;;;21.70;99.90;;;;;;6184020;23;19912;-79
2021/11/09 05:08:31;;;;;;;;;;;21.70;99.90;;;;;;6184704;23;19911;-73
2021/11/09 05:10:59;;;;;;;;;;;21.60;99.90;;;;;;6184091;23;20027;-69
2021/11/09 05:13:26;;;;;;;;;;;21.50;99.90;;;;;;6184614;23;20320;-73
2021/11/09 05:15:53;;;;;;;;;;;21.40;99.90;;;;;;6184511;23;19904;-69
2021/11/09 05:18:20;;;;;;;;;;;21.40;99.90;;;;;;6184571;23;19975;-72
2021/11/09 05:20:49;;;;;;;;;;;21.40;99.90;;;;;;6184005;23;20239;-75
2021/11/09 05:23:16;;;;;;;;;;;21.50;99.90;;;;;;6184650;23;19943;-75
2021/11/09 05:25:42;;;;;;;;;;;21.60;99.90;;;;;;6183774;23;19916;-77
2021/11/09 05:28:09;;;;;;;;;;;21.50;99.90;;;;;;6184388;23;19944;-77
2021/11/09 05:30:37;;;;;;;;;;;21.40;99.90;;;;;;6183971;23;20304;-77
2021/11/09 05:33:05;;;;;;;;;;;21.40;99.90;;;;;;6184145;23;19904;-76
2021/11/09 05:35:31;;;;;;;;;;;21.30;99.90;;;;;;6184262;23;19911;-79
2021/11/09 05:37:59;;;;;;;;;;;21.30;99.90;;;;;;6184137;23;19912;-78
2021/11/09 05:40:29;;;;;;;;;;;21.30;99.90;;;;;;6183403;23;20299;-79
2021/11/09 05:42:57;;;;;;;;;;;21.20;99.90;;;;;;6184368;23;19951;-77
2021/11/09 05:45:24;;;;;;;;;;;21.20;99.90;;;;;;6184260;23;20276;-78
2021/11/09 05:47:51;;;;;;;;;;;21.20;99.90;;;;;;6184414;23;19912;-75
2021/11/09 05:50:18;;;;;;;;;;;21.20;99.90;;;;;;6157920;23;19983;-79
2021/11/09 05:52:45;;;;;;;;;;;21.30;99.90;;;;;;6180690;23;19908;-80
2021/11/09 05:55:12;;;;;;;;;;;21.20;99.90;;;;;;6181374;23;19912;-77
2021/11/09 05:57:38;;;;;;;;;;;21.20;99.90;;;;;;6181747;23;20329;-78
2021/11/09 06:00:06;;;;;;;;;;;21.20;99.90;;;;;;6181580;23;20354;-74
2021/11/09 06:02:33;;;;;;;;;;;21.10;99.90;;;;;;6181538;23;19979;-79
2021/11/09 06:04:59;;;;;;;;;;;21.10;99.90;;;;;;6181316;23;19905;-78
2021/11/09 06:07:26;;;;;;;;;;;21.00;99.90;;;;;;6155260;23;19904;-70
2021/11/09 06:09:53;;;;;;;;;;;20.90;99.90;;;;;;6181171;23;19970;-79
2021/11/09 06:12:19;;;;;;;;;;;21.00;99.90;;;;;;6181637;23;19954;-79
2021/11/09 06:14:46;;;;;;;;;;;21.10;99.90;;;;;;6181470;23;20316;-67
2021/11/09 06:17:13;;;;;;;;;;;21.10;99.90;;;;;;6181493;23;19908;-68
2021/11/09 06:19:39;;;;;;;;;;;21.10;99.90;;;;;;6183434;23;19961;-69
2021/11/09 06:22:07;;;;;;;;;;;21.00;99.90;;;;;;6183937;23;19904;-67
2021/11/09 06:24:34;;;;;;;;;;;20.90;99.90;;;;;;6182680;23;20371;-69
2021/11/09 06:27:01;;;;;;;;;;;20.90;99.90;;;;;;6153956;23;19923;-68
2021/11/09 06:29:27;;;;;;;;;;;21.10;99.90;;;;;;6154330;23;19912;-75
2021/11/09 06:31:56;;;;;;;;;;;21.10;99.90;;;;;;6153130;23;20236;-66
2021/11/09 06:34:23;;;;;;;;;;;21.00;99.90;;;;;;6153824;23;19955;-66
2021/11/09 06:36:50;;;;;;;;;;;21.00;99.90;;;;;;6153864;23;19908;-67
2021/11/09 06:39:16;;;;;;;;;;;20.90;99.90;;;;;;6152148;23;20339;-71
2021/11/09 06:41:44;;;;;;;;;;;20.90;99.90;;;;;;6153570;23;20398;-70
2021/11/09 06:44:10;;;;;;;;;;;20.80;99.90;;;;;;6153299;23;19905;-67
2021/11/09 06:46:37;;;;;;;;;;;20.80;99.90;;;;;;6153626;23;19908;-66
2021/11/09 06:49:04;;;;;;;;;;;20.90;99.90;;;;;;6153337;23;19957;-68
2021/11/09 06:51:30;;;;;;;;;;;20.90;99.90;;;;;;6127748;23;19905;-76
2021/11/09 06:53:57;;;;;;;;;;;21.00;99.90;;;;;;6153299;23;20329;-66
2021/11/09 06:56:23;;;;;;;;;;;21.00;99.90;;;;;;6152342;23;19909;-68
2021/11/09 06:58:50;;;;;;;;;;;20.90;99.90;;;;;;6153321;23;19917;-66
2021/11/09 07:01:17;;;;;;;;;;;20.90;99.90;;;;;;6153678;23;19912;-67
2021/11/09 07:03:44;;;;;;;;;;;20.80;99.90;;;;;;6153580;23;19904;-68
2021/11/09 07:06:11;;;;;;;;;;;20.80;99.90;;;;;;6153174;23;20217;-66
2021/11/09 07:08:37;;;;;;;;;;;20.70;99.90;;;;;;6152331;23;19911;-65
2021/11/09 07:11:05;;;;;;;;;;;20.70;99.90;;;;;;6152693;23;19905;-66
2021/11/09 07:13:33;;;;;;;;;;;20.70;99.90;;;;;;6153499;23;19971;-74
2021/11/09 07:16:02;;;;;;;;;;;20.80;99.90;;;;;;6153445;23;19908;-66
2021/11/09 07:18:28;;;;;;;;;;;20.70;99.90;;;;;;6153009;23;19917;-74
2021/11/09 07:20:55;;;;;;;;;;;20.70;99.90;;;;;;6153272;23;19916;-69
2021/11/09 07:23:22;;;;;;;;;;;20.70;99.90;;;;;;6152816;23;19904;-66
2021/11/09 07:25:49;;;;;;;;;;;20.60;99.90;;;;;;6166975;23;19927;-66
2021/11/09 07:28:16;;;;;;;;;;;20.60;99.90;;;;;;6182595;23;19913;-66
2021/11/09 07:30:54;;;;;;;;;;;20.60;99.90;;;;;;6182238;23;19930;-66
2021/11/09 07:33:21;;;;;;;;;;;20.50;99.90;;;;;;6182851;23;19916;-70
2021/11/09 07:35:48;;;;;;;;;;;20.40;99.90;;;;;;6182561;23;19915;-67
2021/11/09 07:38:16;;;;;;;;;;;20.40;99.90;;;;;;6182202;23;19970;-66
2021/11/09 07:40:44;;;;;;;;;;;20.40;99.90;;;;;;6182865;23;19908;-72
2021/11/09 07:43:11;;;;;;;;;;;20.40;99.90;;;;;;6182806;23;19982;-66
2021/11/09 07:45:37;;;;;;;;;;;20.40;99.90;;;;;;6182508;23;19987;-68
2021/11/09 07:48:04;;;;;;;;;;;20.30;99.90;;;;;;6182567;23;19908;-68
2021/11/09 07:50:31;;;;;;;;;;;20.30;99.90;;;;;;6182042;23;19909;-69
2021/11/09 07:52:59;;;;;;;;;;;20.30;99.90;;;;;;6182353;23;19915;-71
2021/11/09 07:55:27;;;;;;;;;;;20.30;99.90;;;;;;6182392;23;19991;-78
2021/11/09 07:57:58;;;;;;;;;;;20.30;99.90;;;;;;6182616;23;19930;-76
2021/11/09 08:00:36;;;;;;;;;;;20.20;99.90;;;;;;6181608;23;19923;-72
2021/11/09 08:05:55;;;;;;;;;;;20.10;99.90;;;;;;6183537;23;19904;-76
2021/11/09 08:08:28;;;;;;;;;;;20.10;99.90;;;;;;6184676;23;19915;-79
2021/11/09 08:10:55;;;;;;;;;;;20.10;99.90;;;;;;6184973;23;19908;-80
2021/11/09 08:13:22;;;;;;;;;;;20.10;99.90;;;;;;6185106;23;19946;-80
2021/11/09 08:15:49;;;;;;;;;;;20.10;99.90;;;;;;6184922;23;20312;-78
2021/11/09 08:18:16;;;;;;;;;;;20.10;99.90;;;;;;6184612;23;19970;-78
2021/11/09 08:20:43;;;;;;;;;;;20.00;99.90;;;;;;6184415;23;20121;-82
2021/11/09 08:23:09;;;;;;;;;;;20.00;99.90;;;;;;6184744;23;19970;-80
2021/11/09 08:25:36;;;;;;;;;;;20.00;99.90;;;;;;6184489;23;20038;-79
2021/11/09 08:28:03;;;;;;;;;;;20.00;99.90;;;;;;6184597;23;19979;-79
2021/11/09 08:30:30;;;;;;;;;;;20.00;99.90;;;;;;6184745;23;19904;-79
2021/11/09 08:32:59;;;;;;;;;;;20.00;99.90;;;;;;6184330;23;19943;-76
2021/11/09 08:35:26;;;;;;;;;;;19.90;99.90;;;;;;6184580;23;19904;-80
2021/11/09 08:37:53;;;;;;;;;;;19.90;99.90;;;;;;6185035;23;19905;-70
2021/11/09 08:40:22;;;;;;;;;;;19.90;99.90;;;;;;6184267;23;19909;-66
2021/11/09 08:42:53;;;;;;;;;;;19.90;99.90;;;;;;6184931;23;20232;-72
2021/11/09 08:48:17;;;;;;;;;;;19.90;99.90;;;;;;6139671;23;19983;-69
2021/11/09 08:50:48;;;;;;;;;;;19.90;99.90;;;;;;6184488;23;19916;-68
2021/11/09 08:53:21;;;;;;;;;;;19.80;99.90;;;;;;6184723;23;19908;-67
2021/11/09 09:01:18;;;;;;;;;;;19.80;99.90;;;;;;6185029;23;19971;-71
2021/11/09 09:06:30;;;;;;;;;;;19.80;99.90;;;;;;6184939;23;19927;-69
2021/11/09 09:08:57;;;;;;;;;;;19.80;99.90;;;;;;6184375;23;19975;-68
2021/11/09 09:11:23;;;;;;;;;;;19.80;99.90;;;;;;6184906;23;19904;-74
2021/11/09 09:13:50;;;;;;;;;;;19.70;99.90;;;;;;6184663;23;19911;-71
2021/11/09 09:16:17;;;;;;;;;;;19.70;99.90;;;;;;6184790;23;19904;-70
2021/11/09 09:18:45;;;;;;;;;;;19.70;99.90;;;;;;6183894;23;20375;-74
2021/11/09 09:21:14;;;;;;;;;;;19.70;99.90;;;;;;6184775;23;20346;-69
2021/11/09 09:23:46;;;;;;;;;;;19.70;99.90;;;;;;6184390;23;20362;-69
2021/11/09 09:26:50;;;;;;;;;;;19.70;99.90;;;;;;6184736;23;19923;-66
2021/11/09 09:29:48;;;;;;;;;;;19.80;99.90;;;;;;6180162;23;20174;-68
2021/11/09 09:54:22;;;;;;;;;;;19.70;99.90;;;;;;6186432;23;19910;-76
2021/11/09 09:56:52;;;;;;;;;;;19.70;99.90;;;;;;6185842;23;20271;-71
2021/11/09 09:59:20;;;;;;;;;;;19.60;99.90;;;;;;6186624;23;20288;-68
2021/11/09 10:02:02;;;;;;;;;;;19.60;99.90;;;;;;6185624;23;20279;-76
2021/11/09 10:04:34;;;;;;;;;;;19.60;99.90;;;;;;6185445;23;19904;-66
2021/11/09 10:07:02;;;;;;;;;;;19.60;99.90;;;;;;6186506;23;19908;-72
2021/11/09 10:09:37;;;;;;;;;;;19.60;99.90;;;;;;6185976;23;19927;-69
2021/11/09 10:12:18;;;;;;;;;;;19.70;99.90;;;;;;6186129;23;20330;-67
2021/11/09 10:14:47;;;;;;;;;;;19.70;99.90;;;;;;6186100;23;19915;-72
2021/11/09 10:17:15;;;;;;;;;;;19.60;99.90;;;;;;6185228;23;19927;-75
2021/11/09 10:19:42;;;;;;;;;;;19.60;99.90;;;;;;6160133;23;19920;-73
2021/11/09 10:22:19;;;;;;;;;;;19.60;99.90;;;;;;6186155;23;19908;-68
2021/11/09 10:24:57;;;;;;;;;;;19.60;99.90;;;;;;6185180;23;20315;-72
2021/11/09 10:27:24;;;;;;;;;;;19.70;99.90;;;;;;6185513;23;19970;-77
2021/11/09 10:29:52;;;;;;;;;;;19.60;99.90;;;;;;6185736;23;19910;-75
2021/11/09 10:32:20;;;;;;;;;;;19.70;99.90;;;;;;6185629;23;20319;-70
2021/11/09 10:34:47;;;;;;;;;;;19.70;99.90;;;;;;6185695;23;19935;-71
2021/11/09 10:37:15;;;;;;;;;;;19.70;99.90;;;;;;6185957;23;19950;-73
2021/11/09 10:39:46;;;;;;;;;;;19.70;99.90;;;;;;6185460;23;19912;-73
2021/11/09 10:42:13;;;;;;;;;;;19.70;99.90;;;;;;6185650;23;19908;-70
2021/11/09 10:44:42;;;;;;;;;;;19.70;99.90;;;;;;6185963;23;19904;-67
2021/11/09 10:47:17;;;;;;;;;;;19.70;99.90;;;;;;6186134;23;19915;-70
2021/11/09 10:49:48;;;;;;;;;;;19.70;99.90;;;;;;6185876;23;19939;-66
2021/11/09 10:52:19;;;;;;;;;;;19.70;99.90;;;;;;6185632;23;19908;-75
2021/11/09 10:54:58;;;;;;;;;;;19.70;99.90;;;;;;6184868;23;19913;-76
2021/11/09 10:57:33;;;;;;;;;;;19.80;99.90;;;;;;6185247;23;20004;-78
2021/11/09 11:00:18;;;;;;;;;;;19.80;99.90;;;;;;6185641;23;19995;-80
2021/11/09 11:05:29;;;;;;;;;;;19.80;99.90;;;;;;6185777;23;19911;-82
2021/11/09 11:08:00;;;;;;;;;;;19.80;99.90;;;;;;6184685;23;19908;-75
2021/11/09 11:10:28;;;;;;;;;;;19.90;99.90;;;;;;6184810;23;19904;-69
2021/11/09 11:13:15;;;;;;;;;;;19.80;99.90;;;;;;6185581;23;19904;-76
2021/11/09 11:15:59;;;;;;;;;;;19.90;99.90;;;;;;6185368;23;20232;-76
2021/11/09 11:18:30;;;;;;;;;;;19.90;99.90;;;;;;6185599;23;19919;-72
2021/11/09 11:20:57;;;;;;;;;;;19.90;99.90;;;;;;6185518;23;19943;-68
2021/11/09 11:23:24;;;;;;;;;;;19.90;99.90;;;;;;6184899;23;19911;-71
2021/11/09 11:25:51;;;;;;;;;;;19.90;99.90;;;;;;6184598;23;19924;-67
2021/11/09 11:28:18;;;;;;;;;;;19.90;99.90;;;;;;6185676;23;19934;-71
2021/11/09 11:30:45;;;;;;;;;;;19.90;99.90;;;;;;6184844;23;19908;-75
2021/11/09 11:33:12;;;;;;;;;;;19.90;99.90;;;;;;6185308;23;19905;-78
2021/11/09 11:35:38;;;;;;;;;;;19.90;99.90;;;;;;6184957;23;19955;-77
2021/11/09 11:38:05;;;;;;;;;;;19.90;99.90;;;;;;6184761;23;19935;-78
2021/11/09 11:40:32;;;;;;;;;;;19.90;99.90;;;;;;6184492;23;19911;-74
2021/11/09 11:42:58;;;;;;;;;;;19.90;99.90;;;;;;6185122;23;19978;-81
2021/11/09 11:45:25;;;;;;;;;;;20.00;99.90;;;;;;6185289;23;19963;-73
2021/11/09 11:48:05;;;;;;;;;;;20.00;99.90;;;;;;6185589;23;20404;-77
2021/11/09 11:50:39;;;;;;;;;;;20.00;99.90;;;;;;6185120;23;19904;-69
2021/11/09 11:53:06;;;;;;;;;;;20.00;99.90;;;;;;6184855;23;19904;-69
2021/11/09 11:55:33;;;;;;;;;;;20.00;99.90;;;;;;6184856;23;20064;-72
2021/11/09 11:58:00;;;;;;;;;;;20.10;99.90;;;;;;6185102;23;19935;-76
2021/11/09 12:00:39;;;;;;;;;;;20.10;99.90;;;;;;6184896;23;20043;-79
2021/11/09 12:03:26;;;;;;;;;;;20.10;99.90;;;;;;6185067;23;19908;-70
2021/11/09 12:05:54;;;;;;;;;;;20.10;99.90;;;;;;6159520;23;19912;-67
2021/11/09 12:08:40;;;;;;;;;;;20.10;99.90;;;;;;6184557;23;20355;-68
2021/11/09 12:11:09;;;;;;;;;;;20.00;99.90;;;;;;6183939;23;20227;-78
2021/11/09 12:13:56;;;;;;;;;;;20.00;99.90;;;;;;6184224;23;19905;-67
2021/11/09 12:16:41;;;;;;;;;;;20.00;99.90;;;;;;6184476;23;19905;-78
2021/11/09 12:19:07;;;;;;;;;;;20.00;99.90;;;;;;6184720;23;19927;-67
2021/11/09 12:21:35;;;;;;;;;;;20.00;99.90;;;;;;6185016;23;20299;-65
2021/11/09 12:24:08;;;;;;;;;;;20.00;99.90;;;;;;6184606;23;19995;-67
2021/11/09 12:26:39;;;;;;;;;;;20.00;99.90;;;;;;6184405;23;20324;-73
2021/11/09 12:29:26;;;;;;;;;;;20.00;99.90;;;;;;6184806;23;19908;-66
2021/11/09 12:31:53;;;;;;;;;;;20.00;99.90;;;;;;6110628;23;19911;-66
2021/11/09 12:34:39;;;;;;;;;;;20.00;99.90;;;;;;6184805;23;19904;-67
2021/11/09 12:37:20;;;;;;;;;;;19.90;99.90;;;;;;6184305;23;19908;-74
2021/11/09 12:39:47;;;;;;;;;;;19.90;99.90;;;;;;6184297;23;20268;-68
2021/11/09 12:42:14;;;;;;;;;;;19.90;99.90;;;;;;6185075;23;19908;-68
2021/11/09 12:44:41;;;;;;;;;;;19.90;99.90;;;;;;6184150;23;19959;-66
2021/11/09 12:47:11;;;;;;;;;;;19.80;99.90;;;;;;6184790;23;20316;-69
2021/11/09 12:49:40;;;;;;;;;;;19.70;99.90;;;;;;6184366;23;19905;-67
2021/11/09 12:52:06;;;;;;;;;;;19.70;99.90;;;;;;6157497;23;19911;-73
2021/11/09 12:54:34;;;;;;;;;;;19.70;99.90;;;;;;6184333;23;20296;-66
2021/11/09 12:57:03;;;;;;;;;;;19.70;99.90;;;;;;6185127;23;19905;-74
2021/11/09 13:04:46;;;;;;;;;;;19.60;99.90;;;;;;6184884;23;19905;-66
2021/11/09 13:10:13;;;;;;;;;;;19.60;99.90;;;;;;6194273;23;20228;-74
2021/11/09 13:12:41;;;;;;;;;;;19.60;99.90;;;;;;6184281;23;19987;-67
2021/11/09 13:15:12;;;;;;;;;;;19.60;99.90;;;;;;6184678;23;19905;-74
2021/11/09 13:17:45;;;;;;;;;;;19.60;99.90;;;;;;6184304;23;19905;-73
2021/11/09 13:20:22;;;;;;;;;;;19.60;99.90;;;;;;6184369;23;19913;-66
2021/11/09 13:23:08;;;;;;;;;;;19.70;99.90;;;;;;6183957;23;19904;-72
2021/11/09 13:25:41;;;;;;;;;;;19.70;99.90;;;;;;6183737;23;19924;-66
2021/11/09 13:28:14;;;;;;;;;;;19.70;99.90;;;;;;6186522;23;19927;-66
2021/11/09 13:30:44;;;;;;;;;;;19.70;99.90;;;;;;6186482;23;19904;-69
2021/11/09 13:33:12;;;;;;;;;;;19.70;99.90;;;;;;6186618;23;19905;-66
2021/11/09 13:35:40;;;;;;;;;;;19.70;99.90;;;;;;6186915;23;19905;-75
2021/11/09 13:38:08;;;;;;;;;;;19.80;99.90;;;;;;6186158;23;19911;-70
2021/11/09 13:40:38;;;;;;;;;;;19.70;99.90;;;;;;6186770;23;19908;-67
2021/11/09 13:43:07;;;;;;;;;;;19.70;99.90;;;;;;6186777;23;20326;-68
2021/11/09 13:45:34;;;;;;;;;;;19.70;99.90;;;;;;6186585;23;19904;-68
2021/11/09 13:48:01;;;;;;;;;;;19.70;99.90;;;;;;6186602;23;19911;-70
2021/11/09 13:50:28;;;;;;;;;;;19.70;99.90;;;;;;6186217;23;19905;-69
2021/11/09 13:52:55;;;;;;;;;;;19.70;99.90;;;;;;6185698;23;20371;-66
2021/11/09 13:55:22;;;;;;;;;;;19.70;99.90;;;;;;6186395;23;19911;-67
2021/11/09 13:57:49;;;;;;;;;;;19.80;99.90;;;;;;6186432;23;20379;-66
2021/11/09 14:00:24;;;;;;;;;;;19.70;99.90;;;;;;6186442;23;19912;-66
2021/11/09 14:03:21;;;;;;;;;;;19.70;99.90;;;;;;6186073;23;19905;-66
2021/11/09 14:06:16;;;;;;;;;;;19.70;99.90;;;;;;6186850;23;19987;-66
2021/11/09 14:11:57;;;;;;;;;;;19.70;99.90;;;;;;6160563;23;19923;-67
2021/11/09 14:14:51;;;;;;;;;;;19.70;99.90;;;;;;6185983;23;19904;-66
2021/11/09 14:17:18;;;;;;;;;;;19.70;99.90;;;;;;6186259;23;20005;-78
2021/11/09 14:19:44;;;;;;;;;;;19.70;99.90;;;;;;6186158;23;19912;-66
2021/11/09 14:22:11;;;;;;;;;;;19.70;99.90;;;;;;6185511;23;19904;-67
2021/11/09 14:24:38;;;;;;;;;;;19.70;99.90;;;;;;6185892;23;19911;-70
2021/11/09 14:27:05;;;;;;;;;;;19.70;99.90;;;;;;6185842;23;19952;-74
2021/11/09 14:29:35;;;;;;;;;;;19.70;99.90;;;;;;6186206;23;19931;-67
2021/11/09 14:32:05;;;;;;;;;;;19.70;99.90;;;;;;6185832;23;19908;-67
2021/11/09 14:34:32;;;;;;;;;;;19.70;99.90;;;;;;6185755;23;19979;-67
2021/11/09 14:37:07;;;;;;;;;;;19.70;99.90;;;;;;6185296;23;19991;-72
2021/11/09 14:39:40;;;;;;;;;;;19.70;99.90;;;;;;6185354;23;19912;-69
2021/11/09 14:42:27;;;;;;;;;;;19.70;99.90;;;;;;6159952;23;20227;-74
2021/11/09 14:45:09;;;;;;;;;;;19.70;99.90;;;;;;6186322;23;19911;-77
2021/11/09 14:47:41;;;;;;;;;;;19.70;99.90;;;;;;6186141;23;19915;-76
2021/11/09 14:50:13;;;;;;;;;;;19.70;99.90;;;;;;6185785;23;19904;-75
2021/11/09 14:52:42;;;;;;;;;;;19.70;99.90;;;;;;6184854;23;19904;-72
2021/11/09 14:55:30;;;;;;;;;;;19.70;99.90;;;;;;6185375;23;20217;-80
2021/11/09 14:57:57;;;;;;;;;;;19.70;99.90;;;;;;6185472;23;19904;-74
2021/11/09 15:00:25;;;;;;;;;;;19.70;99.90;;;;;;6185560;23;19915;-75
2021/11/09 15:03:05;;;;;;;;;;;19.70;99.90;;;;;;6185455;23;19908;-80
2021/11/09 15:05:34;;;;;;;;;;;19.70;99.90;;;;;;6185075;23;19905;-81
2021/11/09 15:08:08;;;;;;;;;;;19.70;99.90;;;;;;6185118;23;20343;-76
2021/11/09 15:13:36;;;;;;;;;;;19.70;99.90;;;;;;6185605;23;19911;-80
2021/11/09 15:32:12;;;;;;;;;;;19.70;99.90;;;;;;6195593;23;19936;-73
2021/11/09 15:39:40;;;;;;;;;;;19.80;99.90;;;;;;6195513;23;19912;-70
2021/11/09 15:42:10;;;;;;;;;;;19.70;99.90;;;;;;6184995;23;20039;-80
2021/11/09 15:44:38;;;;;;;;;;;19.80;99.90;;;;;;6184829;23;19904;-80
2021/11/09 15:47:05;;;;;;;;;;;19.80;99.90;;;;;;6185570;23;19905;-80
2021/11/09 15:49:31;;;;;;;;;;;19.80;99.90;;;;;;6185136;23;19931;-79
2021/11/09 15:51:59;;;;;;;;;;;19.80;99.90;;;;;;6185162;23;19912;-80
2021/11/09 15:54:26;;;;;;;;;;;19.80;99.90;;;;;;6184868;23;19908;-69
2021/11/09 15:56:52;;;;;;;;;;;19.80;99.90;;;;;;6185499;23;19912;-68
2021/11/09 15:59:19;;;;;;;;;;;19.80;99.90;;;;;;6185074;23;19919;-74
2021/11/09 16:01:46;;;;;;;;;;;19.80;99.90;;;;;;6185148;23;19935;-74
2021/11/09 16:04:14;;;;;;;;;;;19.80;99.90;;;;;;6185485;23;19912;-75
2021/11/09 16:06:43;;;;;;;;;;;19.80;99.90;;;;;;6183933;23;19912;-70
2021/11/09 16:09:10;;;;;;;;;;;19.80;99.90;;;;;;6185257;23;20335;-71
2021/11/09 16:11:39;;;;;;;;;;;19.80;99.90;;;;;;6185173;23;19904;-78
2021/11/09 16:14:06;;;;;;;;;;;19.80;99.90;;;;;;6185385;23;19908;-70
2021/11/09 16:16:33;;;;;;;;;;;19.80;99.90;;;;;;6184661;23;19940;-77
2021/11/09 16:19:01;;;;;;;;;;;19.80;99.90;;;;;;6184848;23;19919;-80
2021/11/09 16:21:28;;;;;;;;;;;19.80;99.90;;;;;;6184474;23;19904;-76
2021/11/09 16:23:54;;;;;;;;;;;19.80;99.90;;;;;;6185271;23;19904;-79
2021/11/09 16:26:41;;;;;;;;;;;19.80;99.90;;;;;;6184897;23;19916;-80
2021/11/09 16:29:08;;;;;;;;;;;19.80;99.90;;;;;;6184514;23;19940;-80
2021/11/09 16:31:36;;;;;;;;;;;19.80;99.90;;;;;;6184729;23;19936;-80
2021/11/09 16:34:03;;;;;;;;;;;19.70;99.90;;;;;;6184164;23;19951;-80
2021/11/09 16:36:32;;;;;;;;;;;19.70;99.90;;;;;;6184301;23;19905;-68
2021/11/09 16:39:09;;;;;;;;;;;19.80;99.90;;;;;;6184908;23;20221;-67
2021/11/09 16:41:37;;;;;;;;;;;19.70;99.90;;;;;;6185337;23;20316;-68
2021/11/09 16:44:09;;;;;;;;;;;19.80;99.90;;;;;;6184827;23;19905;-75
2021/11/09 16:51:57;;;;;;;;;;;19.80;99.90;;;;;;6184709;23;19910;-75
2021/11/09 17:02:30;;;;;;;;;;;19.70;99.90;;;;;;6184812;23;19912;-75
2021/11/09 18:20:25;;;;;;;;;;;19.70;99.90;;;;;;6186406;23;19938;-68
2021/11/09 18:22:53;;;;;;;;;;;19.70;99.90;;;;;;6186308;23;19904;-68
2021/11/09 18:25:23;;;;;;;;;;;19.60;99.90;;;;;;6185873;23;19983;-67
2021/11/09 18:28:00;;;;;;;;;;;19.70;99.90;;;;;;6186645;23;19904;-68
2021/11/09 18:30:32;;;;;;;;;;;19.70;99.90;;;;;;6186198;23;19904;-68
2021/11/09 18:33:00;;;;;;;;;;;19.70;99.90;;;;;;6186088;23;19905;-68
2021/11/09 18:35:28;;;;;;;;;;;19.70;99.90;;;;;;6185781;23;20283;-67
2021/11/09 18:38:01;;;;;;;;;;;19.80;99.90;;;;;;6186261;23;19904;-68
2021/11/09 18:40:29;;;;;;;;;;;19.70;99.90;;;;;;6186146;23;19912;-72